sensor_id;sensor_type;location;lat;lon;timestamp;P1;durP1;ratioP1;P2;durP2;ratioP2
76131;SDS011;64877;50.994;13.650;2022-12-20T00:01:18;34.78;;;15.60;;
76131;SDS011;64877;50.994;13.650;2022-12-20T00:03:47;36.15;;;16.05;;
76131;SDS011;64877;50.994;13.650;2022-12-20T00:08:39;32.60;;;14.37;;
76131;SDS011;64877;50.994;13.650;2022-12-20T00:11:05;32.00;;;14.80;;
76131;SDS011;64877;50.994;13.650;2022-12-20T00:13:32;28.90;;;13.55;;
76131;SDS011;64877;50.994;13.650;2022-12-20T00:16:04;27.33;;;13.75;;
76131;SDS011;64877;50.994;13.650;2022-12-20T00:18:38;28.15;;;13.02;;
76131;SDS011;64877;50.994;13.650;2022-12-20T00:21:05;30.67;;;12.88;;
76131;SDS011;64877;50.994;13.650;2022-12-20T00:23:32;25.58;;;12.75;;
76131;SDS011;64877;50.994;13.650;2022-12-20T00:25:59;28.25;;;13.02;;
76131;SDS011;64877;50.994;13.650;2022-12-20T00:28:28;25.35;;;11.73;;
76131;SDS011;64877;50.994;13.650;2022-12-20T00:30:54;28.80;;;13.50;;
76131;SDS011;64877;50.994;13.650;2022-12-20T00:33:20;25.67;;;12.50;;
76131;SDS011;64877;50.994;13.650;2022-12-20T00:35:45;21.40;;;10.75;;
76131;SDS011;64877;50.994;13.650;2022-12-20T00:38:10;26.65;;;12.27;;
76131;SDS011;64877;50.994;13.650;2022-12-20T00:40:36;32.95;;;15.95;;
76131;SDS011;64877;50.994;13.650;2022-12-20T00:43:01;37.38;;;16.27;;
76131;SDS011;64877;50.994;13.650;2022-12-20T00:45:26;36.03;;;17.13;;
76131;SDS011;64877;50.994;13.650;2022-12-20T00:47:52;37.17;;;16.33;;
76131;SDS011;64877;50.994;13.650;2022-12-20T00:50:17;31.23;;;15.52;;
76131;SDS011;64877;50.994;13.650;2022-12-20T00:52:42;32.45;;;15.73;;
76131;SDS011;64877;50.994;13.650;2022-12-20T00:55:08;35.38;;;16.20;;
76131;SDS011;64877;50.994;13.650;2022-12-20T00:57:33;35.42;;;15.85;;
76131;SDS011;64877;50.994;13.650;2022-12-20T00:59:59;29.98;;;15.55;;
76131;SDS011;64877;50.994;13.650;2022-12-20T01:02:24;36.28;;;17.10;;
76131;SDS011;64877;50.994;13.650;2022-12-20T01:04:50;33.75;;;16.40;;
76131;SDS011;64877;50.994;13.650;2022-12-20T01:07:15;33.40;;;16.75;;
76131;SDS011;64877;50.994;13.650;2022-12-20T01:09:40;36.00;;;17.02;;
76131;SDS011;64877;50.994;13.650;2022-12-20T01:12:06;31.38;;;15.80;;
76131;SDS011;64877;50.994;13.650;2022-12-20T01:14:32;35.55;;;16.30;;
76131;SDS011;64877;50.994;13.650;2022-12-20T01:16:57;36.22;;;16.13;;
76131;SDS011;64877;50.994;13.650;2022-12-20T01:19:23;36.08;;;16.08;;
76131;SDS011;64877;50.994;13.650;2022-12-20T01:21:49;33.22;;;16.42;;
76131;SDS011;64877;50.994;13.650;2022-12-20T01:24:15;36.45;;;16.95;;
76131;SDS011;64877;50.994;13.650;2022-12-20T01:26:42;36.60;;;16.52;;
76131;SDS011;64877;50.994;13.650;2022-12-20T01:29:08;30.73;;;15.80;;
76131;SDS011;64877;50.994;13.650;2022-12-20T01:31:33;32.10;;;15.98;;
76131;SDS011;64877;50.994;13.650;2022-12-20T01:33:59;37.63;;;17.17;;
76131;SDS011;64877;50.994;13.650;2022-12-20T01:36:26;34.75;;;16.60;;
76131;SDS011;64877;50.994;13.650;2022-12-20T01:39:12;34.72;;;16.42;;
76131;SDS011;64877;50.994;13.650;2022-12-20T01:41:39;34.85;;;16.23;;
76131;SDS011;64877;50.994;13.650;2022-12-20T01:46:46;35.72;;;16.35;;
76131;SDS011;64877;50.994;13.650;2022-12-20T01:49:17;38.72;;;16.58;;
76131;SDS011;64877;50.994;13.650;2022-12-20T01:51:49;38.58;;;17.38;;
76131;SDS011;64877;50.994;13.650;2022-12-20T01:54:33;40.40;;;17.77;;
76131;SDS011;64877;50.994;13.650;2022-12-20T01:57:05;41.63;;;17.38;;
76131;SDS011;64877;50.994;13.650;2022-12-20T01:59:36;37.75;;;18.42;;
76131;SDS011;64877;50.994;13.650;2022-12-20T02:02:06;41.75;;;18.38;;
76131;SDS011;64877;50.994;13.650;2022-12-20T02:04:34;41.47;;;18.85;;
76131;SDS011;64877;50.994;13.650;2022-12-20T02:07:00;40.88;;;18.80;;
76131;SDS011;64877;50.994;13.650;2022-12-20T02:09:28;39.17;;;17.73;;
76131;SDS011;64877;50.994;13.650;2022-12-20T02:20:00;37.05;;;17.48;;
76131;SDS011;64877;50.994;13.650;2022-12-20T02:30:44;39.03;;;18.45;;
76131;SDS011;64877;50.994;13.650;2022-12-20T02:33:13;37.75;;;18.15;;
76131;SDS011;64877;50.994;13.650;2022-12-20T02:35:40;41.90;;;19.38;;
76131;SDS011;64877;50.994;13.650;2022-12-20T02:41:01;38.35;;;16.98;;
76131;SDS011;64877;50.994;13.650;2022-12-20T02:43:31;39.08;;;17.63;;
76131;SDS011;64877;50.994;13.650;2022-12-20T02:46:18;36.25;;;17.98;;
76131;SDS011;64877;50.994;13.650;2022-12-20T02:48:47;38.78;;;18.63;;
76131;SDS011;64877;50.994;13.650;2022-12-20T02:51:15;40.47;;;18.95;;
76131;SDS011;64877;50.994;13.650;2022-12-20T02:53:44;41.55;;;18.95;;
76131;SDS011;64877;50.994;13.650;2022-12-20T02:56:17;42.75;;;19.27;;
76131;SDS011;64877;50.994;13.650;2022-12-20T03:01:20;40.27;;;17.33;;
76131;SDS011;64877;50.994;13.650;2022-12-20T03:03:50;39.88;;;17.73;;
76131;SDS011;64877;50.994;13.650;2022-12-20T03:06:16;45.47;;;19.58;;
76131;SDS011;64877;50.994;13.650;2022-12-20T03:08:42;44.10;;;19.65;;
76131;SDS011;64877;50.994;13.650;2022-12-20T03:11:07;37.65;;;17.90;;
76131;SDS011;64877;50.994;13.650;2022-12-20T03:13:33;38.67;;;18.17;;
76131;SDS011;64877;50.994;13.650;2022-12-20T03:15:58;41.53;;;18.38;;
76131;SDS011;64877;50.994;13.650;2022-12-20T03:18:23;40.20;;;18.80;;
76131;SDS011;64877;50.994;13.650;2022-12-20T03:20:49;40.80;;;18.65;;
76131;SDS011;64877;50.994;13.650;2022-12-20T03:23:14;41.28;;;19.35;;
76131;SDS011;64877;50.994;13.650;2022-12-20T03:25:40;38.88;;;17.35;;
76131;SDS011;64877;50.994;13.650;2022-12-20T03:28:05;42.58;;;19.05;;
76131;SDS011;64877;50.994;13.650;2022-12-20T03:30:31;41.58;;;19.25;;
76131;SDS011;64877;50.994;13.650;2022-12-20T03:32:56;44.75;;;18.60;;
76131;SDS011;64877;50.994;13.650;2022-12-20T03:35:21;44.15;;;18.88;;
76131;SDS011;64877;50.994;13.650;2022-12-20T03:37:47;41.33;;;18.77;;
76131;SDS011;64877;50.994;13.650;2022-12-20T03:40:12;39.03;;;18.55;;
76131;SDS011;64877;50.994;13.650;2022-12-20T03:42:38;41.35;;;17.85;;
76131;SDS011;64877;50.994;13.650;2022-12-20T03:45:04;43.42;;;18.17;;
76131;SDS011;64877;50.994;13.650;2022-12-20T03:47:29;43.30;;;19.23;;
76131;SDS011;64877;50.994;13.650;2022-12-20T03:49:55;40.65;;;18.00;;
76131;SDS011;64877;50.994;13.650;2022-12-20T03:52:21;43.28;;;19.90;;
76131;SDS011;64877;50.994;13.650;2022-12-20T03:54:46;46.97;;;20.15;;
76131;SDS011;64877;50.994;13.650;2022-12-20T03:57:12;41.65;;;19.05;;
76131;SDS011;64877;50.994;13.650;2022-12-20T03:59:37;43.72;;;20.45;;
76131;SDS011;64877;50.994;13.650;2022-12-20T04:02:03;42.80;;;19.45;;
76131;SDS011;64877;50.994;13.650;2022-12-20T04:04:28;44.35;;;20.02;;
76131;SDS011;64877;50.994;13.650;2022-12-20T04:06:54;48.10;;;21.33;;
76131;SDS011;64877;50.994;13.650;2022-12-20T04:09:20;46.63;;;19.80;;
76131;SDS011;64877;50.994;13.650;2022-12-20T04:11:45;42.05;;;19.73;;
76131;SDS011;64877;50.994;13.650;2022-12-20T04:14:11;50.53;;;20.77;;
76131;SDS011;64877;50.994;13.650;2022-12-20T04:16:37;45.83;;;19.48;;
76131;SDS011;64877;50.994;13.650;2022-12-20T04:19:02;45.47;;;20.98;;
76131;SDS011;64877;50.994;13.650;2022-12-20T04:21:29;46.40;;;20.33;;
76131;SDS011;64877;50.994;13.650;2022-12-20T04:23:57;43.50;;;19.73;;
76131;SDS011;64877;50.994;13.650;2022-12-20T04:26:23;42.92;;;19.40;;
76131;SDS011;64877;50.994;13.650;2022-12-20T04:28:49;40.25;;;18.55;;
76131;SDS011;64877;50.994;13.650;2022-12-20T04:31:15;43.85;;;19.67;;
76131;SDS011;64877;50.994;13.650;2022-12-20T04:33:40;46.45;;;19.60;;
76131;SDS011;64877;50.994;13.650;2022-12-20T04:36:05;45.08;;;19.75;;
76131;SDS011;64877;50.994;13.650;2022-12-20T04:38:31;48.50;;;20.08;;
76131;SDS011;64877;50.994;13.650;2022-12-20T04:40:57;37.53;;;18.58;;
76131;SDS011;64877;50.994;13.650;2022-12-20T04:43:23;43.63;;;17.98;;
76131;SDS011;64877;50.994;13.650;2022-12-20T04:45:50;45.40;;;19.17;;
76131;SDS011;64877;50.994;13.650;2022-12-20T04:48:20;43.55;;;19.63;;
76131;SDS011;64877;50.994;13.650;2022-12-20T04:50:48;47.35;;;20.13;;
76131;SDS011;64877;50.994;13.650;2022-12-20T04:53:14;45.25;;;20.55;;
76131;SDS011;64877;50.994;13.650;2022-12-20T04:55:59;46.00;;;20.27;;
76131;SDS011;64877;50.994;13.650;2022-12-20T04:58:25;42.80;;;20.05;;
76131;SDS011;64877;50.994;13.650;2022-12-20T05:00:50;47.55;;;21.27;;
76131;SDS011;64877;50.994;13.650;2022-12-20T05:03:19;53.45;;;20.48;;
76131;SDS011;64877;50.994;13.650;2022-12-20T05:05:45;47.65;;;19.75;;
76131;SDS011;64877;50.994;13.650;2022-12-20T05:08:11;46.03;;;19.15;;
76131;SDS011;64877;50.994;13.650;2022-12-20T05:10:36;41.03;;;19.05;;
76131;SDS011;64877;50.994;13.650;2022-12-20T05:13:02;41.45;;;19.55;;
76131;SDS011;64877;50.994;13.650;2022-12-20T05:15:27;43.75;;;19.25;;
76131;SDS011;64877;50.994;13.650;2022-12-20T05:17:53;42.67;;;19.50;;
76131;SDS011;64877;50.994;13.650;2022-12-20T05:20:23;45.95;;;20.35;;
76131;SDS011;64877;50.994;13.650;2022-12-20T05:22:53;46.70;;;20.08;;
76131;SDS011;64877;50.994;13.650;2022-12-20T05:25:37;46.35;;;19.70;;
76131;SDS011;64877;50.994;13.650;2022-12-20T05:28:34;45.78;;;19.65;;
76131;SDS011;64877;50.994;13.650;2022-12-20T05:31:00;48.17;;;21.30;;
76131;SDS011;64877;50.994;13.650;2022-12-20T05:33:26;44.97;;;20.25;;
76131;SDS011;64877;50.994;13.650;2022-12-20T05:35:52;49.50;;;22.67;;
76131;SDS011;64877;50.994;13.650;2022-12-20T05:38:17;44.45;;;21.13;;
76131;SDS011;64877;50.994;13.650;2022-12-20T05:40:43;45.33;;;20.67;;
76131;SDS011;64877;50.994;13.650;2022-12-20T05:43:12;44.95;;;20.30;;
76131;SDS011;64877;50.994;13.650;2022-12-20T05:45:38;44.80;;;20.70;;
76131;SDS011;64877;50.994;13.650;2022-12-20T05:48:03;46.97;;;19.73;;
76131;SDS011;64877;50.994;13.650;2022-12-20T05:50:29;47.67;;;20.73;;
76131;SDS011;64877;50.994;13.650;2022-12-20T05:52:54;43.47;;;19.77;;
76131;SDS011;64877;50.994;13.650;2022-12-20T05:55:20;43.28;;;19.58;;
76131;SDS011;64877;50.994;13.650;2022-12-20T05:57:45;41.97;;;20.13;;
76131;SDS011;64877;50.994;13.650;2022-12-20T06:00:11;47.85;;;20.17;;
76131;SDS011;64877;50.994;13.650;2022-12-20T06:02:37;47.95;;;20.58;;
76131;SDS011;64877;50.994;13.650;2022-12-20T06:05:02;57.58;;;23.17;;
76131;SDS011;64877;50.994;13.650;2022-12-20T06:07:28;45.92;;;19.88;;
76131;SDS011;64877;50.994;13.650;2022-12-20T06:09:54;52.90;;;24.05;;
76131;SDS011;64877;50.994;13.650;2022-12-20T06:12:20;52.35;;;24.48;;
76131;SDS011;64877;50.994;13.650;2022-12-20T06:14:45;53.83;;;23.17;;
76131;SDS011;64877;50.994;13.650;2022-12-20T06:17:11;61.17;;;28.40;;
76131;SDS011;64877;50.994;13.650;2022-12-20T06:19:36;52.67;;;25.15;;
76131;SDS011;64877;50.994;13.650;2022-12-20T06:22:04;44.78;;;20.35;;
76131;SDS011;64877;50.994;13.650;2022-12-20T06:24:29;47.75;;;21.58;;
76131;SDS011;64877;50.994;13.650;2022-12-20T06:26:54;42.97;;;19.08;;
76131;SDS011;64877;50.994;13.650;2022-12-20T06:29:20;48.60;;;20.63;;
76131;SDS011;64877;50.994;13.650;2022-12-20T06:31:48;41.33;;;19.45;;
76131;SDS011;64877;50.994;13.650;2022-12-20T06:34:13;43.80;;;20.05;;
76131;SDS011;64877;50.994;13.650;2022-12-20T06:36:40;50.58;;;21.25;;
76131;SDS011;64877;50.994;13.650;2022-12-20T06:39:05;49.45;;;22.33;;
76131;SDS011;64877;50.994;13.650;2022-12-20T06:41:32;42.97;;;19.92;;
76131;SDS011;64877;50.994;13.650;2022-12-20T06:43:58;49.88;;;20.40;;
76131;SDS011;64877;50.994;13.650;2022-12-20T06:46:23;44.58;;;19.95;;
76131;SDS011;64877;50.994;13.650;2022-12-20T06:48:48;44.88;;;21.55;;
76131;SDS011;64877;50.994;13.650;2022-12-20T06:51:14;49.92;;;20.88;;
76131;SDS011;64877;50.994;13.650;2022-12-20T06:53:41;45.17;;;20.52;;
76131;SDS011;64877;50.994;13.650;2022-12-20T06:56:06;45.85;;;21.08;;
76131;SDS011;64877;50.994;13.650;2022-12-20T06:58:32;44.60;;;19.88;;
76131;SDS011;64877;50.994;13.650;2022-12-20T07:00:57;45.60;;;21.48;;
76131;SDS011;64877;50.994;13.650;2022-12-20T07:03:23;41.83;;;19.65;;
76131;SDS011;64877;50.994;13.650;2022-12-20T07:05:52;48.53;;;22.38;;
76131;SDS011;64877;50.994;13.650;2022-12-20T07:08:18;43.78;;;20.80;;
76131;SDS011;64877;50.994;13.650;2022-12-20T07:10:44;48.97;;;21.33;;
76131;SDS011;64877;50.994;13.650;2022-12-20T07:13:09;39.78;;;18.05;;
76131;SDS011;64877;50.994;13.650;2022-12-20T07:15:35;46.28;;;19.58;;
76131;SDS011;64877;50.994;13.650;2022-12-20T07:18:01;46.17;;;22.58;;
76131;SDS011;64877;50.994;13.650;2022-12-20T07:20:27;40.33;;;20.65;;
76131;SDS011;64877;50.994;13.650;2022-12-20T07:22:52;47.85;;;21.58;;
76131;SDS011;64877;50.994;13.650;2022-12-20T07:25:18;46.53;;;20.90;;
76131;SDS011;64877;50.994;13.650;2022-12-20T07:27:47;42.55;;;19.45;;
76131;SDS011;64877;50.994;13.650;2022-12-20T07:30:17;47.35;;;20.58;;
76131;SDS011;64877;50.994;13.650;2022-12-20T07:32:43;48.90;;;22.55;;
76131;SDS011;64877;50.994;13.650;2022-12-20T07:35:09;43.35;;;21.52;;
76131;SDS011;64877;50.994;13.650;2022-12-20T07:37:35;44.22;;;21.73;;
76131;SDS011;64877;50.994;13.650;2022-12-20T07:40:01;44.75;;;21.92;;
76131;SDS011;64877;50.994;13.650;2022-12-20T07:42:26;51.15;;;22.45;;
76131;SDS011;64877;50.994;13.650;2022-12-20T07:44:51;40.97;;;20.05;;
76131;SDS011;64877;50.994;13.650;2022-12-20T07:47:17;43.92;;;21.50;;
76131;SDS011;64877;50.994;13.650;2022-12-20T07:49:42;43.47;;;20.52;;
76131;SDS011;64877;50.994;13.650;2022-12-20T07:52:08;42.90;;;20.40;;
76131;SDS011;64877;50.994;13.650;2022-12-20T07:54:37;45.63;;;19.17;;
76131;SDS011;64877;50.994;13.650;2022-12-20T07:57:11;38.22;;;19.00;;
76131;SDS011;64877;50.994;13.650;2022-12-20T07:59:43;39.72;;;18.40;;
76131;SDS011;64877;50.994;13.650;2022-12-20T08:02:12;35.53;;;18.77;;
76131;SDS011;64877;50.994;13.650;2022-12-20T08:04:42;48.13;;;21.23;;
76131;SDS011;64877;50.994;13.650;2022-12-20T08:07:08;47.13;;;19.70;;
76131;SDS011;64877;50.994;13.650;2022-12-20T08:09:35;43.00;;;18.83;;
76131;SDS011;64877;50.994;13.650;2022-12-20T08:12:03;39.40;;;19.02;;
76131;SDS011;64877;50.994;13.650;2022-12-20T08:14:30;40.50;;;18.55;;
76131;SDS011;64877;50.994;13.650;2022-12-20T08:16:55;39.78;;;19.23;;
76131;SDS011;64877;50.994;13.650;2022-12-20T08:19:21;40.50;;;18.48;;
76131;SDS011;64877;50.994;13.650;2022-12-20T08:21:46;36.63;;;17.58;;
76131;SDS011;64877;50.994;13.650;2022-12-20T08:24:12;36.38;;;18.20;;
76131;SDS011;64877;50.994;13.650;2022-12-20T08:26:38;31.48;;;15.57;;
76131;SDS011;64877;50.994;13.650;2022-12-20T08:29:04;35.10;;;16.92;;
76131;SDS011;64877;50.994;13.650;2022-12-20T08:31:30;29.50;;;15.15;;
76131;SDS011;64877;50.994;13.650;2022-12-20T08:33:55;30.45;;;14.63;;
76131;SDS011;64877;50.994;13.650;2022-12-20T08:36:21;33.03;;;15.60;;
76131;SDS011;64877;50.994;13.650;2022-12-20T08:38:46;31.75;;;15.23;;
76131;SDS011;64877;50.994;13.650;2022-12-20T08:41:12;33.47;;;16.25;;
76131;SDS011;64877;50.994;13.650;2022-12-20T08:43:39;33.17;;;15.43;;
76131;SDS011;64877;50.994;13.650;2022-12-20T08:46:05;33.50;;;14.93;;
76131;SDS011;64877;50.994;13.650;2022-12-20T08:48:32;30.33;;;14.80;;
76131;SDS011;64877;50.994;13.650;2022-12-20T08:50:59;35.78;;;15.50;;
76131;SDS011;64877;50.994;13.650;2022-12-20T08:53:26;32.17;;;14.85;;
76131;SDS011;64877;50.994;13.650;2022-12-20T08:55:52;29.83;;;14.30;;
76131;SDS011;64877;50.994;13.650;2022-12-20T08:58:18;33.17;;;15.75;;
76131;SDS011;64877;50.994;13.650;2022-12-20T09:00:44;30.80;;;15.77;;
76131;SDS011;64877;50.994;13.650;2022-12-20T09:03:10;36.17;;;16.70;;
76131;SDS011;64877;50.994;13.650;2022-12-20T09:05:47;31.98;;;15.32;;
76131;SDS011;64877;50.994;13.650;2022-12-20T09:08:13;30.83;;;15.40;;
76131;SDS011;64877;50.994;13.650;2022-12-20T09:10:39;29.95;;;14.15;;
76131;SDS011;64877;50.994;13.650;2022-12-20T09:13:05;33.85;;;15.73;;
76131;SDS011;64877;50.994;13.650;2022-12-20T09:15:30;32.97;;;15.98;;
76131;SDS011;64877;50.994;13.650;2022-12-20T09:20:24;32.80;;;15.60;;
76131;SDS011;64877;50.994;13.650;2022-12-20T09:22:49;38.28;;;17.83;;
76131;SDS011;64877;50.994;13.650;2022-12-20T09:25:15;38.95;;;17.73;;
76131;SDS011;64877;50.994;13.650;2022-12-20T09:27:40;29.85;;;14.98;;
76131;SDS011;64877;50.994;13.650;2022-12-20T09:30:06;35.13;;;15.68;;
76131;SDS011;64877;50.994;13.650;2022-12-20T09:32:32;36.42;;;16.13;;
76131;SDS011;64877;50.994;13.650;2022-12-20T09:34:57;35.08;;;15.80;;
76131;SDS011;64877;50.994;13.650;2022-12-20T09:37:22;36.75;;;15.68;;
76131;SDS011;64877;50.994;13.650;2022-12-20T09:39:48;39.35;;;17.65;;
76131;SDS011;64877;50.994;13.650;2022-12-20T09:42:16;34.90;;;14.93;;
76131;SDS011;64877;50.994;13.650;2022-12-20T09:44:46;33.72;;;14.75;;
76131;SDS011;64877;50.994;13.650;2022-12-20T09:47:14;30.40;;;15.15;;
76131;SDS011;64877;50.994;13.650;2022-12-20T09:49:51;31.23;;;14.68;;
76131;SDS011;64877;50.994;13.650;2022-12-20T09:52:33;35.22;;;14.60;;
76131;SDS011;64877;50.994;13.650;2022-12-20T10:00:28;31.95;;;14.82;;
76131;SDS011;64877;50.994;13.650;2022-12-20T10:02:54;39.00;;;15.93;;
76131;SDS011;64877;50.994;13.650;2022-12-20T10:05:25;35.88;;;15.27;;
76131;SDS011;64877;50.994;13.650;2022-12-20T10:07:59;34.17;;;16.52;;
76131;SDS011;64877;50.994;13.650;2022-12-20T10:10:50;33.00;;;15.82;;
76131;SDS011;64877;50.994;13.650;2022-12-20T10:21:25;32.05;;;14.98;;
76131;SDS011;64877;50.994;13.650;2022-12-20T10:24:00;31.27;;;14.50;;
76131;SDS011;64877;50.994;13.650;2022-12-20T10:26:27;36.80;;;16.10;;
76131;SDS011;64877;50.994;13.650;2022-12-20T10:28:54;34.50;;;15.75;;
76131;SDS011;64877;50.994;13.650;2022-12-20T10:31:19;35.55;;;15.32;;
76131;SDS011;64877;50.994;13.650;2022-12-20T10:33:45;34.30;;;16.42;;
76131;SDS011;64877;50.994;13.650;2022-12-20T10:38:57;31.52;;;15.00;;
76131;SDS011;64877;50.994;13.650;2022-12-20T10:41:47;34.83;;;16.38;;
76131;SDS011;64877;50.994;13.650;2022-12-20T10:46:53;37.00;;;16.90;;
76131;SDS011;64877;50.994;13.650;2022-12-20T10:51:51;37.40;;;16.88;;
76131;SDS011;64877;50.994;13.650;2022-12-20T10:54:38;38.47;;;16.15;;
76131;SDS011;64877;50.994;13.650;2022-12-20T10:57:18;37.17;;;16.30;;
76131;SDS011;64877;50.994;13.650;2022-12-20T10:59:59;32.75;;;15.90;;
76131;SDS011;64877;50.994;13.650;2022-12-20T11:02:30;38.70;;;16.05;;
76131;SDS011;64877;50.994;13.650;2022-12-20T11:10:08;36.60;;;16.02;;
76131;SDS011;64877;50.994;13.650;2022-12-20T11:12:55;40.33;;;17.42;;
76131;SDS011;64877;50.994;13.650;2022-12-20T11:15:28;39.60;;;16.73;;
76131;SDS011;64877;50.994;13.650;2022-12-20T11:17:58;31.63;;;14.65;;
76131;SDS011;64877;50.994;13.650;2022-12-20T11:20:31;38.33;;;16.67;;
76131;SDS011;64877;50.994;13.650;2022-12-20T11:23:22;35.75;;;17.17;;
76131;SDS011;64877;50.994;13.650;2022-12-20T11:25:53;39.33;;;17.15;;
76131;SDS011;64877;50.994;13.650;2022-12-20T11:47:45;30.73;;;14.75;;
76131;SDS011;64877;50.994;13.650;2022-12-20T11:55:26;30.95;;;14.65;;
76131;SDS011;64877;50.994;13.650;2022-12-20T11:57:58;30.33;;;14.55;;
76131;SDS011;64877;50.994;13.650;2022-12-20T12:01:03;35.28;;;15.20;;
76131;SDS011;64877;50.994;13.650;2022-12-20T12:03:37;34.90;;;15.65;;
76131;SDS011;64877;50.994;13.650;2022-12-20T12:06:10;33.13;;;15.77;;
76131;SDS011;64877;50.994;13.650;2022-12-20T12:08:56;36.15;;;15.30;;
76131;SDS011;64877;50.994;13.650;2022-12-20T12:11:36;34.08;;;15.80;;
76131;SDS011;64877;50.994;13.650;2022-12-20T12:14:07;34.53;;;16.77;;
76131;SDS011;64877;50.994;13.650;2022-12-20T12:16:56;34.90;;;15.95;;
76131;SDS011;64877;50.994;13.650;2022-12-20T12:19:23;34.15;;;16.45;;
76131;SDS011;64877;50.994;13.650;2022-12-20T12:21:52;32.55;;;15.40;;
76131;SDS011;64877;50.994;13.650;2022-12-20T12:24:31;35.05;;;16.08;;
76131;SDS011;64877;50.994;13.650;2022-12-20T12:27:03;33.85;;;16.10;;
76131;SDS011;64877;50.994;13.650;2022-12-20T12:29:29;35.95;;;17.02;;
76131;SDS011;64877;50.994;13.650;2022-12-20T12:32:03;35.95;;;15.80;;
76131;SDS011;64877;50.994;13.650;2022-12-20T12:34:47;35.33;;;15.20;;
76131;SDS011;64877;50.994;13.650;2022-12-20T12:45:15;34.33;;;16.65;;
76131;SDS011;64877;50.994;13.650;2022-12-20T12:47:50;31.48;;;14.70;;
76131;SDS011;64877;50.994;13.650;2022-12-20T12:52:57;31.90;;;15.50;;
76131;SDS011;64877;50.994;13.650;2022-12-20T12:55:36;34.53;;;15.30;;
76131;SDS011;64877;50.994;13.650;2022-12-20T13:03:14;31.40;;;14.38;;
76131;SDS011;64877;50.994;13.650;2022-12-20T13:05:41;30.95;;;14.98;;
76131;SDS011;64877;50.994;13.650;2022-12-20T13:08:15;30.45;;;14.68;;
76131;SDS011;64877;50.994;13.650;2022-12-20T13:13:20;40.35;;;16.27;;
76131;SDS011;64877;50.994;13.650;2022-12-20T13:15:50;30.75;;;15.05;;
76131;SDS011;64877;50.994;13.650;2022-12-20T13:18:28;33.28;;;16.60;;
76131;SDS011;64877;50.994;13.650;2022-12-20T13:30:29;37.08;;;16.83;;
76131;SDS011;64877;50.994;13.650;2022-12-20T13:43:20;30.98;;;14.95;;
76131;SDS011;64877;50.994;13.650;2022-12-20T13:45:53;33.90;;;15.05;;
76131;SDS011;64877;50.994;13.650;2022-12-20T13:48:58;25.90;;;13.05;;
76131;SDS011;64877;50.994;13.650;2022-12-20T13:51:20;34.83;;;15.75;;
76131;SDS011;64877;50.994;13.650;2022-12-20T13:58:57;36.75;;;16.15;;
76131;SDS011;64877;50.994;13.650;2022-12-20T14:01:28;32.97;;;15.13;;
76131;SDS011;64877;50.994;13.650;2022-12-20T14:03:55;32.13;;;14.32;;
76131;SDS011;64877;50.994;13.650;2022-12-20T14:06:21;32.53;;;16.30;;
76131;SDS011;64877;50.994;13.650;2022-12-20T14:08:49;35.97;;;16.42;;
76131;SDS011;64877;50.994;13.650;2022-12-20T14:11:20;38.83;;;17.05;;
76131;SDS011;64877;50.994;13.650;2022-12-20T14:13:55;36.50;;;17.30;;
76131;SDS011;64877;50.994;13.650;2022-12-20T14:16:23;34.17;;;16.70;;
76131;SDS011;64877;50.994;13.650;2022-12-20T14:18:59;40.15;;;18.58;;
76131;SDS011;64877;50.994;13.650;2022-12-20T14:21:24;48.30;;;20.63;;
76131;SDS011;64877;50.994;13.650;2022-12-20T14:23:51;39.65;;;18.30;;
76131;SDS011;64877;50.994;13.650;2022-12-20T14:26:29;41.28;;;19.85;;
76131;SDS011;64877;50.994;13.650;2022-12-20T14:29:00;42.20;;;19.83;;
76131;SDS011;64877;50.994;13.650;2022-12-20T14:31:28;40.28;;;19.40;;
76131;SDS011;64877;50.994;13.650;2022-12-20T14:36:27;37.95;;;19.25;;
76131;SDS011;64877;50.994;13.650;2022-12-20T14:38:54;40.00;;;17.48;;
76131;SDS011;64877;50.994;13.650;2022-12-20T14:41:39;40.15;;;18.30;;
76131;SDS011;64877;50.994;13.650;2022-12-20T14:44:17;41.40;;;18.88;;
76131;SDS011;64877;50.994;13.650;2022-12-20T14:46:49;36.45;;;17.08;;
76131;SDS011;64877;50.994;13.650;2022-12-20T14:49:19;37.00;;;16.48;;
76131;SDS011;64877;50.994;13.650;2022-12-20T14:51:48;34.45;;;15.18;;
76131;SDS011;64877;50.994;13.650;2022-12-20T14:56:47;40.28;;;18.88;;
76131;SDS011;64877;50.994;13.650;2022-12-20T14:59:16;44.53;;;19.05;;
76131;SDS011;64877;50.994;13.650;2022-12-20T15:01:51;40.35;;;18.60;;
76131;SDS011;64877;50.994;13.650;2022-12-20T15:04:30;38.78;;;17.98;;
76131;SDS011;64877;50.994;13.650;2022-12-20T15:06:57;43.30;;;20.77;;
76131;SDS011;64877;50.994;13.650;2022-12-20T15:09:24;42.28;;;19.10;;
76131;SDS011;64877;50.994;13.650;2022-12-20T15:11:49;44.67;;;21.17;;
76131;SDS011;64877;50.994;13.650;2022-12-20T15:16:55;39.65;;;18.15;;
76131;SDS011;64877;50.994;13.650;2022-12-20T15:19:21;41.97;;;19.75;;
76131;SDS011;64877;50.994;13.650;2022-12-20T15:21:46;38.47;;;17.80;;
76131;SDS011;64877;50.994;13.650;2022-12-20T15:24:13;41.55;;;19.67;;
76131;SDS011;64877;50.994;13.650;2022-12-20T15:26:45;45.05;;;20.35;;
76131;SDS011;64877;50.994;13.650;2022-12-20T15:29:29;42.75;;;19.90;;
76131;SDS011;64877;50.994;13.650;2022-12-20T15:32:05;44.08;;;20.02;;
76131;SDS011;64877;50.994;13.650;2022-12-20T15:34:38;39.65;;;17.90;;
76131;SDS011;64877;50.994;13.650;2022-12-20T15:37:04;43.85;;;18.23;;
76131;SDS011;64877;50.994;13.650;2022-12-20T15:39:30;42.15;;;18.65;;
76131;SDS011;64877;50.994;13.650;2022-12-20T15:41:57;46.15;;;19.50;;
76131;SDS011;64877;50.994;13.650;2022-12-20T15:44:25;47.28;;;19.65;;
76131;SDS011;64877;50.994;13.650;2022-12-20T15:46:53;48.28;;;20.65;;
76131;SDS011;64877;50.994;13.650;2022-12-20T15:49:23;42.00;;;19.48;;
76131;SDS011;64877;50.994;13.650;2022-12-20T15:51:50;40.97;;;19.17;;
76131;SDS011;64877;50.994;13.650;2022-12-20T15:56:45;40.30;;;18.55;;
76131;SDS011;64877;50.994;13.650;2022-12-20T15:59:11;43.05;;;20.13;;
76131;SDS011;64877;50.994;13.650;2022-12-20T16:01:37;43.83;;;19.40;;
76131;SDS011;64877;50.994;13.650;2022-12-20T16:04:03;46.35;;;21.38;;
76131;SDS011;64877;50.994;13.650;2022-12-20T16:06:29;41.10;;;20.33;;
76131;SDS011;64877;50.994;13.650;2022-12-20T16:08:55;41.35;;;18.40;;
76131;SDS011;64877;50.994;13.650;2022-12-20T16:11:25;39.65;;;17.52;;
76131;SDS011;64877;50.994;13.650;2022-12-20T16:13:52;43.47;;;19.70;;
76131;SDS011;64877;50.994;13.650;2022-12-20T16:16:22;39.38;;;19.67;;
76131;SDS011;64877;50.994;13.650;2022-12-20T16:18:50;51.90;;;22.33;;
76131;SDS011;64877;50.994;13.650;2022-12-20T16:21:18;42.13;;;18.33;;
76131;SDS011;64877;50.994;13.650;2022-12-20T16:23:48;39.42;;;18.02;;
76131;SDS011;64877;50.994;13.650;2022-12-20T16:26:15;44.10;;;19.27;;
76131;SDS011;64877;50.994;13.650;2022-12-20T16:28:44;40.63;;;18.98;;
76131;SDS011;64877;50.994;13.650;2022-12-20T16:31:16;45.15;;;20.98;;